Time;durP1;ratioP1;P1;durP2;ratioP2;P2;SDS_P1;SDS_P2;PMS_P1;PMS_P2;Temp;Humidity;BMP_temperature;BMP_pressure;BME280_temperature;BME280_humidity;BME280_pressure;Samples;Min_cycle;Max_cycle;Signal;HPM_P1;HPM_P2
2023/11/06 00:00:33;;;;;;;5.43;1.40;;;8.70;99.90;;;;;;5072552;28;20127;-70
2023/11/06 00:02:59;;;;;;;6.57;1.50;;;8.70;99.90;;;;;;5070868;28;20048;-71
2023/11/06 00:05:25;;;;;;;11.60;2.20;;;8.70;99.90;;;;;;5069683;28;20056;-70
2023/11/06 00:07:51;;;;;;;9.05;1.75;;;8.70;99.90;;;;;;5068855;28;20063;-70
2023/11/06 00:10:17;;;;;;;4.80;1.35;;;8.70;99.90;;;;;;5071412;28;20052;-71
2023/11/06 00:12:43;;;;;;;4.38;1.05;;;8.80;99.90;;;;;;5070018;28;20036;-71
2023/11/06 00:15:13;;;;;;;9.63;1.25;;;8.80;99.90;;;;;;5070908;28;20044;-71
2023/11/06 00:17:39;;;;;;;5.05;1.35;;;8.80;99.90;;;;;;5069048;28;20041;-71
2023/11/06 00:20:05;;;;;;;4.80;1.27;;;8.80;99.90;;;;;;5069994;28;20082;-71
2023/11/06 00:22:31;;;;;;;4.70;1.20;;;8.80;99.90;;;;;;5069565;28;20040;-71
2023/11/06 00:24:57;;;;;;;6.28;0.98;;;8.80;99.90;;;;;;5070019;28;20040;-71
2023/11/06 00:27:25;;;;;;;3.60;0.98;;;8.80;99.90;;;;;;5069416;28;20131;-71
2023/11/06 00:29:51;;;;;;;4.90;1.30;;;8.80;99.90;;;;;;5068969;28;20116;-71
2023/11/06 00:32:17;;;;;;;6.90;1.10;;;8.80;99.90;;;;;;5071402;28;20044;-71
2023/11/06 00:34:43;;;;;;;8.43;1.70;;;8.80;99.90;;;;;;5068905;28;20127;-71
2023/11/06 00:37:10;;;;;;;3.42;1.23;;;8.90;99.90;;;;;;5099222;28;20115;-71
2023/11/06 00:39:35;;;;;;;3.95;1.40;;;9.20;99.90;;;;;;5069412;28;20040;-71
2023/11/06 00:42:03;;;;;;;6.68;1.75;;;8.90;99.90;;;;;;5069650;28;20510;-70
2023/11/06 00:44:28;;;;;;;2.28;0.98;;;8.90;99.90;;;;;;5070044;28;20067;-71
2023/11/06 00:46:54;;;;;;;3.63;1.08;;;9.00;99.90;;;;;;5069985;28;20483;-71
2023/11/06 00:49:20;;;;;;;2.92;1.25;;;9.00;99.90;;;;;;5069448;28;20110;-71
2023/11/06 00:51:46;;;;;;;5.30;1.45;;;9.00;99.90;;;;;;5067943;28;20072;-71
2023/11/06 00:54:14;;;;;;;6.63;1.83;;;9.10;99.90;;;;;;5068687;28;20062;-71
2023/11/06 00:56:40;;;;;;;6.50;1.58;;;9.10;99.90;;;;;;5068386;28;20047;-71
2023/11/06 00:59:06;;;;;;;5.22;2.15;;;9.20;99.90;;;;;;5065168;28;20502;-71
2023/11/06 01:01:31;;;;;;;6.40;1.88;;;9.10;99.90;;;;;;5064326;28;20049;-71
2023/11/06 01:03:57;;;;;;;3.53;1.83;;;9.20;99.90;;;;;;5066579;28;20047;-71
2023/11/06 01:06:24;;;;;;;4.35;1.90;;;9.20;99.90;;;;;;5100428;27;20051;-71
2023/11/06 01:08:50;;;;;;;7.60;1.90;;;9.10;99.90;;;;;;5070549;28;21426;-71
2023/11/06 01:11:16;;;;;;;5.40;2.13;;;9.20;99.90;;;;;;5069475;28;20588;-71
2023/11/06 01:13:42;;;;;;;5.88;2.45;;;9.20;99.90;;;;;;5098916;28;20036;-71
2023/11/06 01:16:08;;;;;;;4.50;1.45;;;9.20;99.90;;;;;;5069965;28;20132;-71
2023/11/06 01:18:34;;;;;;;2.83;1.08;;;9.20;99.90;;;;;;5069582;28;20123;-71
2023/11/06 01:20:59;;;;;;;3.05;0.95;;;9.20;99.90;;;;;;5098502;28;20040;-71
2023/11/06 01:23:26;;;;;;;5.47;1.15;;;9.20;99.90;;;;;;5068914;28;20048;-71
2023/11/06 01:25:52;;;;;;;4.45;1.20;;;9.20;99.90;;;;;;5069372;28;20528;-71
2023/11/06 01:28:17;;;;;;;4.75;1.08;;;9.20;99.90;;;;;;5066755;28;20505;-71
2023/11/06 01:30:43;;;;;;;5.05;2.08;;;9.20;99.90;;;;;;5067973;28;20085;-71
2023/11/06 01:33:08;;;;;;;3.95;1.17;;;9.20;99.90;;;;;;5068332;28;20391;-71
2023/11/06 01:35:34;;;;;;;4.88;1.33;;;9.20;99.90;;;;;;5068565;28;20046;-71
2023/11/06 01:38:01;;;;;;;4.00;1.35;;;9.20;99.90;;;;;;5067881;28;20040;-71
2023/11/06 01:40:30;;;;;;;6.55;2.35;;;9.20;99.90;;;;;;5067717;28;20065;-71
2023/11/06 01:42:55;;;;;;;7.75;3.40;;;9.10;99.90;;;;;;5067656;28;20052;-71
2023/11/06 01:45:21;;;;;;;8.40;3.38;;;9.20;99.90;;;;;;5069598;28;20040;-71
2023/11/06 01:47:50;;;;;;;9.38;3.83;;;9.10;99.90;;;;;;5067933;28;20047;-71
2023/11/06 01:50:16;;;;;;;6.78;3.45;;;9.10;99.90;;;;;;5085402;28;20047;-71
2023/11/06 01:52:43;;;;;;;7.75;4.35;;;9.10;99.90;;;;;;5063631;28;20037;-71
2023/11/06 01:55:10;;;;;;;15.32;5.18;;;9.20;99.90;;;;;;5068535;28;20062;-71
2023/11/06 01:57:36;;;;;;;9.02;4.57;;;9.20;99.90;;;;;;5065876;28;20070;-71
2023/11/06 02:00:04;;;;;;;8.32;5.18;;;9.20;99.90;;;;;;5050758;28;20558;-71
2023/11/06 02:02:31;;;;;;;6.90;4.70;;;9.20;99.90;;;;;;5068858;28;20156;-71
2023/11/06 02:04:57;;;;;;;9.43;5.40;;;9.20;99.90;;;;;;5067933;28;20032;-71
2023/11/06 02:07:22;;;;;;;11.40;5.03;;;9.20;99.90;;;;;;5098277;28;20185;-71
2023/11/06 02:09:48;;;;;;;11.38;5.75;;;9.30;99.90;;;;;;5061460;28;20079;-71
2023/11/06 02:12:14;;;;;;;9.20;5.00;;;9.30;99.90;;;;;;5066139;28;20052;-71
2023/11/06 02:15:10;;;;;;;10.18;5.72;;;9.30;99.90;;;;;;5069755;28;20035;-72
2023/11/06 02:17:36;;;;;;;12.60;6.68;;;9.30;99.90;;;;;;5059074;28;20060;-71
2023/11/06 02:20:02;;;;;;;12.40;5.63;;;9.20;99.90;;;;;;5066848;28;20387;-70
2023/11/06 02:22:28;;;;;;;11.80;5.82;;;9.20;99.90;;;;;;5065257;28;20080;-71
2023/11/06 02:24:54;;;;;;;12.23;6.13;;;9.70;99.90;;;;;;5065823;28;20063;-71
2023/11/06 02:27:20;;;;;;;8.00;5.38;;;9.20;99.90;;;;;;5067272;28;20483;-71
2023/11/06 02:29:49;;;;;;;13.07;6.30;;;9.20;99.90;;;;;;5050568;28;20040;-71
2023/11/06 02:32:16;;;;;;;9.27;5.90;;;9.20;99.90;;;;;;5098831;28;20510;-71
2023/11/06 02:34:41;;;;;;;7.07;4.93;;;9.20;99.90;;;;;;5067907;28;20418;-71
2023/11/06 02:37:08;;;;;;;11.35;5.57;;;9.20;99.90;;;;;;5068230;28;20102;-71
2023/11/06 02:39:34;;;;;;;9.73;5.85;;;9.20;99.90;;;;;;5065129;28;20044;-71
2023/11/06 02:42:04;;;;;;;12.15;5.13;;;9.20;99.90;;;;;;5069469;28;20387;-71
2023/11/06 02:44:31;;;;;;;11.77;5.82;;;9.20;99.90;;;;;;5067159;28;20036;-71
2023/11/06 02:46:57;;;;;;;10.77;5.47;;;9.30;99.90;;;;;;5067450;28;20079;-71
2023/11/06 02:49:26;;;;;;;10.63;5.18;;;9.30;99.90;;;;;;5066250;28;20072;-71
2023/11/06 02:51:52;;;;;;;9.45;5.45;;;9.30;99.90;;;;;;5067750;28;20090;-71
2023/11/06 02:54:19;;;;;;;11.05;5.80;;;9.40;99.90;;;;;;5066972;28;20040;-71
2023/11/06 02:56:45;;;;;;;12.30;5.00;;;9.40;99.90;;;;;;5067802;28;20339;-71
2023/11/06 02:59:10;;;;;;;9.57;5.25;;;9.40;99.90;;;;;;5068303;28;20044;-71
2023/11/06 03:01:36;;;;;;;9.85;5.18;;;9.30;99.90;;;;;;5067085;28;20043;-71
2023/11/06 03:04:02;;;;;;;11.55;5.22;;;9.30;99.90;;;;;;5070330;28;20036;-71
2023/11/06 03:06:28;;;;;;;11.52;4.85;;;9.30;99.90;;;;;;5070779;28;20051;-71
2023/11/06 03:08:54;;;;;;;12.52;5.50;;;9.20;99.90;;;;;;5068593;28;20459;-71
2023/11/06 03:11:23;;;;;;;10.02;4.47;;;9.20;99.90;;;;;;5072778;28;20032;-71
2023/11/06 03:13:49;;;;;;;10.07;4.97;;;9.30;99.90;;;;;;5071184;28;20043;-71
2023/11/06 03:16:17;;;;;;;9.85;5.35;;;9.60;99.90;;;;;;5070787;28;20037;-71
2023/11/06 03:18:44;;;;;;;7.72;5.72;;;9.30;99.90;;;;;;5069139;28;20509;-71
2023/11/06 03:21:10;;;;;;;11.15;5.13;;;9.30;99.90;;;;;;5069746;28;20045;-71
2023/11/06 03:23:37;;;;;;;14.30;6.07;;;9.40;99.90;;;;;;5068735;28;20490;-71
2023/11/06 03:26:03;;;;;;;10.00;5.53;;;9.40;99.90;;;;;;5068728;28;20485;-71
2023/11/06 03:28:29;;;;;;;10.68;5.15;;;9.40;99.90;;;;;;5071678;28;21348;-71
2023/11/06 03:30:54;;;;;;;13.52;6.05;;;9.40;99.90;;;;;;5071672;28;20072;-71
2023/11/06 03:33:20;;;;;;;8.75;5.53;;;9.30;99.90;;;;;;5068007;28;20045;-71
2023/11/06 03:35:46;;;;;;;7.78;5.25;;;9.40;99.90;;;;;;5051463;28;20051;-71
2023/11/06 03:38:12;;;;;;;11.25;5.40;;;9.40;99.90;;;;;;5069928;28;20456;-71
2023/11/06 03:40:37;;;;;;;10.73;5.60;;;9.40;99.90;;;;;;5068535;28;20036;-71
2023/11/06 03:43:03;;;;;;;9.43;5.20;;;9.40;99.90;;;;;;5069429;28;20049;-71
2023/11/06 03:45:28;;;;;;;10.65;6.07;;;9.40;99.90;;;;;;5070553;28;20051;-71
2023/11/06 03:47:54;;;;;;;9.38;5.68;;;9.40;99.90;;;;;;5069754;28;20043;-71
2023/11/06 03:50:20;;;;;;;9.50;5.38;;;9.40;99.90;;;;;;5068650;28;20528;-71
2023/11/06 03:52:45;;;;;;;8.82;5.13;;;9.50;99.90;;;;;;5070111;28;20454;-71
2023/11/06 03:55:13;;;;;;;9.77;4.88;;;9.40;99.90;;;;;;5068660;28;20041;-71
2023/11/06 03:57:39;;;;;;;12.07;4.93;;;9.50;99.90;;;;;;5101505;28;20048;-71
2023/11/06 04:00:07;;;;;;;7.95;4.30;;;9.50;99.90;;;;;;5070011;28;20052;-71
2023/11/06 04:02:32;;;;;;;10.02;4.38;;;9.40;99.90;;;;;;5069367;28;20052;-71
2023/11/06 04:04:58;;;;;;;8.50;5.15;;;9.40;99.90;;;;;;5068081;28;20036;-71
2023/11/06 04:07:24;;;;;;;9.93;5.03;;;9.50;99.90;;;;;;5101546;28;20032;-71
2023/11/06 04:09:50;;;;;;;7.82;4.65;;;9.40;99.90;;;;;;5069721;28;20040;-71
2023/11/06 04:12:16;;;;;;;8.23;4.68;;;9.40;99.90;;;;;;5069159;28;20098;-71
2023/11/06 04:14:41;;;;;;;9.00;4.72;;;9.40;99.90;;;;;;5072163;28;20086;-71
2023/11/06 04:17:08;;;;;;;10.88;4.72;;;9.30;99.90;;;;;;5070999;28;20128;-71
2023/11/06 04:19:33;;;;;;;8.02;4.30;;;9.30;99.90;;;;;;5067934;28;20083;-71
2023/11/06 04:21:59;;;;;;;7.25;4.20;;;9.20;99.90;;;;;;5071522;28;20136;-71
2023/11/06 04:24:25;;;;;;;7.78;4.47;;;9.20;99.90;;;;;;5071402;28;20082;-71
2023/11/06 04:26:50;;;;;;;7.13;4.10;;;9.20;99.90;;;;;;5073084;28;20033;-71
2023/11/06 04:29:16;;;;;;;7.32;4.68;;;9.30;99.90;;;;;;5069501;28;20131;-72
2023/11/06 04:31:41;;;;;;;9.02;4.43;;;9.30;99.90;;;;;;5070608;28;20039;-71
2023/11/06 04:34:07;;;;;;;7.00;5.25;;;9.30;99.90;;;;;;5068873;28;20482;-71
2023/11/06 04:36:33;;;;;;;10.30;5.30;;;9.50;99.90;;;;;;5068752;28;20028;-71
2023/11/06 04:38:58;;;;;;;6.95;5.25;;;9.30;99.90;;;;;;5099178;27;20490;-71
2023/11/06 04:41:24;;;;;;;10.68;6.75;;;9.30;99.90;;;;;;5101158;28;20048;-71
2023/11/06 04:43:49;;;;;;;9.02;6.60;;;9.40;99.90;;;;;;5072123;28;20143;-71
2023/11/06 04:46:15;;;;;;;11.40;7.43;;;9.40;99.90;;;;;;5070113;28;20086;-71
2023/11/06 04:48:41;;;;;;;9.65;7.07;;;9.40;99.90;;;;;;5069334;28;20033;-71
2023/11/06 04:51:07;;;;;;;11.35;7.43;;;9.40;99.90;;;;;;5068220;28;20074;-71
2023/11/06 04:53:33;;;;;;;12.77;7.75;;;9.40;99.90;;;;;;5068229;28;20032;-71
2023/11/06 04:55:59;;;;;;;12.00;8.20;;;9.40;99.90;;;;;;5068959;28;20049;-71
2023/11/06 04:58:27;;;;;;;15.23;8.20;;;9.40;99.90;;;;;;5069848;28;20119;-71
2023/11/06 05:00:52;;;;;;;13.02;8.20;;;9.50;99.90;;;;;;5064838;28;20446;-71
2023/11/06 05:03:18;;;;;;;19.73;9.20;;;9.50;99.90;;;;;;5062725;28;20054;-71
2023/11/06 05:05:44;;;;;;;15.40;8.60;;;9.50;99.90;;;;;;5069496;28;20042;-71
2023/11/06 05:08:10;;;;;;;13.55;8.48;;;9.50;99.90;;;;;;5069150;28;20372;-71
2023/11/06 05:10:36;;;;;;;13.57;7.97;;;9.50;99.90;;;;;;5068511;28;20051;-71
2023/11/06 05:13:01;;;;;;;13.70;8.02;;;9.50;99.90;;;;;;5069644;28;21579;-71
2023/11/06 05:15:27;;;;;;;14.38;8.45;;;9.50;99.90;;;;;;5067394;28;20063;-71
2023/11/06 05:17:52;;;;;;;15.30;8.85;;;9.50;99.90;;;;;;5068970;28;20045;-71
2023/11/06 05:20:20;;;;;;;13.73;9.07;;;9.40;99.90;;;;;;5067238;28;20037;-71
2023/11/06 05:22:45;;;;;;;12.15;8.98;;;9.50;99.90;;;;;;5068694;28;20053;-71
2023/11/06 05:25:11;;;;;;;13.75;8.93;;;9.50;99.90;;;;;;5070346;28;20045;-70
2023/11/06 05:27:37;;;;;;;10.32;8.13;;;9.50;99.90;;;;;;5070832;28;20504;-71
2023/11/06 05:30:04;;;;;;;12.82;9.25;;;9.50;99.90;;;;;;5068416;28;20054;-71
2023/11/06 05:32:31;;;;;;;13.32;8.68;;;9.50;99.90;;;;;;5080900;28;20047;-71
2023/11/06 05:34:57;;;;;;;11.65;8.75;;;9.50;99.90;;;;;;5067597;28;20033;-71
2023/11/06 05:37:26;;;;;;;12.05;8.82;;;9.60;99.90;;;;;;5068289;28;20040;-71
2023/11/06 05:39:53;;;;;;;16.02;8.30;;;9.50;99.90;;;;;;5067454;28;20036;-71
2023/11/06 05:42:18;;;;;;;11.50;8.98;;;9.50;99.90;;;;;;5067977;28;20048;-71
2023/11/06 05:44:44;;;;;;;10.75;7.63;;;9.50;99.90;;;;;;5092752;28;20059;-71
2023/11/06 05:47:10;;;;;;;15.15;8.10;;;9.50;99.90;;;;;;5066476;28;20048;-71
2023/11/06 05:49:37;;;;;;;12.43;8.00;;;9.70;99.90;;;;;;5066031;28;20036;-71
2023/11/06 05:52:04;;;;;;;11.60;8.10;;;9.40;99.90;;;;;;5065488;28;20097;-71
2023/11/06 05:54:30;;;;;;;13.57;8.38;;;9.50;99.90;;;;;;5074877;28;20071;-71
2023/11/06 05:56:56;;;;;;;14.65;7.80;;;9.50;99.90;;;;;;5067144;28;20060;-71
2023/11/06 05:59:21;;;;;;;10.52;7.95;;;9.50;99.90;;;;;;5063980;28;20509;-71
2023/11/06 06:01:47;;;;;;;11.82;7.75;;;9.60;99.90;;;;;;5064726;28;20088;-71
2023/11/06 06:04:13;;;;;;;11.75;8.02;;;9.50;99.90;;;;;;5061034;28;20041;-71
2023/11/06 06:06:39;;;;;;;17.38;8.52;;;9.50;99.90;;;;;;5063487;28;20051;-71
2023/11/06 06:09:05;;;;;;;16.38;9.10;;;9.50;99.90;;;;;;5064315;28;20053;-71
2023/11/06 06:11:37;;;;;;;11.65;7.88;;;9.50;99.90;;;;;;5065790;28;20036;-71
2023/11/06 06:14:04;;;;;;;13.82;8.68;;;9.80;99.90;;;;;;5068158;28;20490;-71
2023/11/06 06:16:30;;;;;;;12.65;7.90;;;9.50;99.90;;;;;;5064208;28;20039;-71
2023/11/06 06:18:56;;;;;;;14.07;9.55;;;9.60;99.90;;;;;;5063338;28;20076;-71
2023/11/06 06:21:21;;;;;;;13.15;8.00;;;9.80;99.90;;;;;;5066304;28;20135;-71
2023/11/06 06:23:47;;;;;;;12.98;7.47;;;9.60;99.90;;;;;;5068259;28;20036;-71
2023/11/06 06:26:13;;;;;;;11.68;8.52;;;9.50;99.90;;;;;;5069213;28;20028;-71
2023/11/06 06:28:38;;;;;;;12.25;7.75;;;9.60;99.90;;;;;;5066084;28;20497;-71
2023/11/06 06:31:04;;;;;;;12.50;7.45;;;9.50;99.90;;;;;;5064942;28;20046;-71
2023/11/06 06:33:29;;;;;;;13.02;7.55;;;9.50;99.90;;;;;;5063709;28;20052;-71
2023/11/06 06:35:55;;;;;;;9.82;7.00;;;9.50;99.90;;;;;;5063514;28;20123;-71
2023/11/06 06:38:21;;;;;;;10.65;7.40;;;9.50;99.90;;;;;;5062008;28;20505;-71
2023/11/06 06:40:50;;;;;;;11.30;7.40;;;9.50;99.90;;;;;;5065624;28;20041;-70
2023/11/06 06:43:16;;;;;;;12.25;6.63;;;9.50;99.90;;;;;;5069188;28;20098;-70
2023/11/06 06:45:42;;;;;;;10.27;6.97;;;9.60;99.90;;;;;;5102930;28;20044;-71
2023/11/06 06:48:08;;;;;;;9.57;6.78;;;9.50;99.90;;;;;;5065589;28;20044;-71
2023/11/06 06:50:33;;;;;;;9.77;5.97;;;9.50;99.90;;;;;;5088743;28;20036;-71
2023/11/06 06:52:59;;;;;;;11.75;5.15;;;9.50;99.90;;;;;;5062607;28;20141;-71
2023/11/06 06:55:25;;;;;;;7.13;5.15;;;10.00;99.90;;;;;;5064533;28;20032;-71
2023/11/06 06:57:50;;;;;;;9.60;4.57;;;9.50;99.90;;;;;;5065500;28;20040;-71
2023/11/06 07:00:17;;;;;;;9.07;3.30;;;9.50;99.90;;;;;;5059682;28;20063;-71
2023/11/06 07:02:42;;;;;;;6.22;2.63;;;9.50;99.90;;;;;;5063030;28;20048;-71
2023/11/06 07:05:12;;;;;;;7.75;2.88;;;9.50;99.90;;;;;;5066631;28;20412;-71
2023/11/06 07:07:38;;;;;;;4.70;1.95;;;9.40;99.90;;;;;;5063508;28;20059;-71
2023/11/06 07:10:04;;;;;;;4.55;2.95;;;9.40;99.90;;;;;;5065920;28;20040;-71
2023/11/06 07:12:30;;;;;;;6.78;2.65;;;9.40;99.90;;;;;;5068235;28;20143;-70
2023/11/06 07:14:56;;;;;;;7.68;3.28;;;9.30;99.90;;;;;;5066859;28;20040;-70
2023/11/06 07:17:21;;;;;;;7.65;3.72;;;9.30;99.90;;;;;;5064965;28;20404;-71
2023/11/06 07:19:47;;;;;;;5.93;3.33;;;9.30;99.90;;;;;;5065075;28;20028;-71
2023/11/06 07:22:13;;;;;;;7.13;4.28;;;9.30;99.90;;;;;;5048337;28;20036;-71
2023/11/06 07:24:39;;;;;;;11.15;4.55;;;9.30;99.90;;;;;;5049622;28;20032;-70
2023/11/06 07:27:04;;;;;;;8.05;4.65;;;9.30;99.90;;;;;;5069239;28;20099;-70
2023/11/06 07:29:30;;;;;;;9.88;5.10;;;9.30;99.90;;;;;;5066888;28;20383;-70
2023/11/06 07:31:56;;;;;;;7.63;4.53;;;9.30;99.90;;;;;;5067247;28;20040;-70
2023/11/06 07:34:22;;;;;;;9.88;5.68;;;9.20;99.90;;;;;;5066854;28;20040;-71
2023/11/06 07:36:50;;;;;;;7.20;5.18;;;9.20;99.90;;;;;;5067180;28;20052;-71
2023/11/06 07:39:17;;;;;;;10.05;5.57;;;9.20;99.90;;;;;;5065004;28;20037;-71
2023/11/06 07:41:43;;;;;;;8.35;5.43;;;9.20;99.90;;;;;;5066127;28;20045;-70
2023/11/06 07:44:09;;;;;;;11.18;4.78;;;9.30;99.90;;;;;;5065821;28;20043;-71
2023/11/06 07:46:35;;;;;;;8.98;4.07;;;9.30;99.90;;;;;;5070619;28;20120;-71
2023/11/06 07:49:01;;;;;;;11.10;4.65;;;9.30;99.90;;;;;;5067944;28;20043;-70
2023/11/06 07:51:27;;;;;;;6.35;3.45;;;9.30;99.90;;;;;;5066457;28;20087;-71
2023/11/06 07:53:53;;;;;;;15.00;4.68;;;9.30;99.90;;;;;;5067200;28;20111;-71
2023/11/06 07:56:18;;;;;;;9.85;4.32;;;9.40;99.90;;;;;;5070421;28;20363;-71
2023/11/06 07:58:46;;;;;;;7.70;3.50;;;9.70;99.90;;;;;;5067318;28;20060;-71
2023/11/06 08:01:13;;;;;;;8.27;3.25;;;9.50;99.90;;;;;;5052963;28;20176;-71
2023/11/06 08:03:38;;;;;;;7.00;3.30;;;9.70;99.90;;;;;;5067343;28;20059;-70
2023/11/06 08:06:05;;;;;;;8.38;3.13;;;9.50;99.90;;;;;;5101925;27;20040;-70
2023/11/06 08:08:31;;;;;;;9.82;2.72;;;9.60;99.90;;;;;;5063371;28;20052;-71
2023/11/06 08:10:57;;;;;;;5.30;2.28;;;9.60;99.90;;;;;;5065466;28;20055;-70
2023/11/06 08:13:23;;;;;;;7.97;2.17;;;9.60;99.90;;;;;;5058195;28;20553;-70
2023/11/06 08:15:49;;;;;;;6.70;2.65;;;9.90;99.90;;;;;;5070120;28;20036;-70
2023/11/06 08:18:14;;;;;;;8.27;2.15;;;9.60;99.90;;;;;;5065471;28;20039;-70
2023/11/06 08:20:40;;;;;;;10.27;2.60;;;9.70;99.90;;;;;;5067873;28;20568;-70
2023/11/06 08:23:06;;;;;;;5.93;2.42;;;9.60;99.90;;;;;;5050968;28;20051;-70
2023/11/06 08:25:34;;;;;;;6.03;2.40;;;9.70;99.90;;;;;;5070216;28;20072;-70
2023/11/06 08:28:00;;;;;;;8.80;2.40;;;9.70;99.90;;;;;;5068266;28;21762;-70
2023/11/06 08:30:25;;;;;;;10.38;2.28;;;9.70;99.90;;;;;;5068798;28;20541;-70
2023/11/06 08:32:51;;;;;;;6.45;2.28;;;9.70;99.90;;;;;;5064303;28;20123;-70
2023/11/06 08:35:17;;;;;;;8.98;2.40;;;10.00;99.90;;;;;;5067971;28;20032;-70
2023/11/06 08:37:43;;;;;;;8.07;3.13;;;9.80;99.90;;;;;;5067170;28;20436;-70
2023/11/06 08:40:08;;;;;;;7.40;2.40;;;9.80;99.90;;;;;;5068609;28;20041;-70
2023/11/06 08:42:37;;;;;;;14.65;2.45;;;9.80;99.90;;;;;;5068910;28;20421;-70
2023/11/06 08:45:03;;;;;;;7.75;2.67;;;9.90;99.90;;;;;;5067804;28;20445;-70
2023/11/06 08:47:29;;;;;;;8.75;2.25;;;9.90;99.90;;;;;;5071811;28;20478;-70
2023/11/06 08:49:55;;;;;;;4.85;1.98;;;10.10;99.90;;;;;;5067268;28;20076;-70
2023/11/06 08:52:27;;;;;;;6.30;2.10;;;9.90;99.90;;;;;;5068197;28;20048;-70
2023/11/06 08:54:52;;;;;;;8.60;2.55;;;9.90;99.90;;;;;;5069458;28;20035;-70
2023/11/06 08:57:18;;;;;;;6.57;2.20;;;9.90;99.90;;;;;;5071544;28;20085;-70
2023/11/06 08:59:45;;;;;;;6.10;2.13;;;9.90;99.90;;;;;;5070125;28;20036;-70
2023/11/06 09:02:11;;;;;;;4.65;1.80;;;9.90;99.90;;;;;;5068953;28;20098;-70
2023/11/06 09:04:40;;;;;;;5.40;1.50;;;9.90;99.90;;;;;;5067096;28;20044;-70
2023/11/06 09:07:06;;;;;;;4.72;1.80;;;9.90;99.90;;;;;;5068121;28;20047;-70
2023/11/06 09:09:32;;;;;;;5.80;1.50;;;9.90;99.90;;;;;;5065951;28;20471;-70
2023/11/06 09:11:57;;;;;;;6.25;2.03;;;9.80;99.90;;;;;;5072265;28;20076;-70
2023/11/06 09:14:23;;;;;;;8.05;1.58;;;9.80;99.90;;;;;;5067624;28;20075;-70
2023/11/06 09:16:49;;;;;;;5.25;1.20;;;9.90;99.90;;;;;;5068131;28;20103;-70
2023/11/06 09:19:14;;;;;;;7.38;1.30;;;9.90;99.90;;;;;;5067575;28;20044;-70
2023/11/06 09:21:40;;;;;;;5.28;2.30;;;10.00;99.90;;;;;;5068993;28;20498;-70
2023/11/06 09:24:08;;;;;;;8.20;1.60;;;10.10;99.90;;;;;;5066854;28;20107;-70
2023/11/06 09:26:35;;;;;;;7.75;2.13;;;10.10;99.90;;;;;;5066170;28;20127;-70
2023/11/06 09:29:01;;;;;;;7.18;1.55;;;10.30;99.90;;;;;;5070024;28;20471;-70
2023/11/06 09:31:27;;;;;;;6.07;1.48;;;10.40;99.90;;;;;;5100829;28;20049;-70
2023/11/06 09:33:54;;;;;;;5.72;1.25;;;10.40;99.90;;;;;;5068421;28;20498;-70
2023/11/06 09:36:20;;;;;;;5.00;1.20;;;10.40;99.90;;;;;;5069151;28;20043;-70
2023/11/06 09:38:46;;;;;;;5.90;1.30;;;10.50;99.90;;;;;;5067047;28;20041;-70
2023/11/06 09:41:12;;;;;;;6.45;1.15;;;10.60;99.90;;;;;;5067229;28;20501;-71
2023/11/06 09:43:40;;;;;;;6.60;1.60;;;10.70;99.90;;;;;;5070476;28;20040;-70
2023/11/06 09:46:11;;;;;;;7.78;1.55;;;10.70;99.90;;;;;;5100290;28;20351;-70
2023/11/06 09:48:38;;;;;;;8.45;2.20;;;10.80;99.90;;;;;;5066597;28;20044;-70
2023/11/06 09:51:13;;;;;;;4.65;1.05;;;10.80;99.90;;;;;;5066812;28;20036;-70
2023/11/06 09:53:44;;;;;;;4.60;0.90;;;10.90;99.90;;;;;;5059785;28;20115;-70
2023/11/06 09:56:11;;;;;;;5.22;0.90;;;10.80;99.90;;;;;;5097290;28;20483;-70
2023/11/06 09:58:38;;;;;;;7.45;0.90;;;10.80;99.90;;;;;;5067964;28;20047;-71
2023/11/06 10:01:05;;;;;;;8.25;1.15;;;10.80;99.90;;;;;;5061147;28;20052;-70
2023/11/06 10:03:31;;;;;;;6.25;0.98;;;10.90;99.90;;;;;;5062795;28;20638;-70
2023/11/06 10:05:59;;;;;;;3.92;1.10;;;10.90;99.90;;;;;;5063943;28;20040;-70
2023/11/06 10:08:29;;;;;;;7.07;1.35;;;10.90;99.90;;;;;;5067735;28;20060;-70
2023/11/06 10:11:00;;;;;;;7.75;0.98;;;10.90;99.90;;;;;;5058036;28;20544;-70
2023/11/06 10:13:26;;;;;;;5.03;1.27;;;10.80;99.90;;;;;;5069635;28;20131;-70
2023/11/06 10:15:52;;;;;;;3.45;1.27;;;10.80;99.90;;;;;;5066838;28;20169;-70
2023/11/06 10:18:19;;;;;;;5.18;0.93;;;10.90;99.90;;;;;;5065281;28;20068;-70
2023/11/06 10:20:52;;;;;;;4.90;1.13;;;10.90;99.90;;;;;;5067844;28;20452;-70
2023/11/06 10:23:30;;;;;;;4.72;0.95;;;10.90;99.90;;;;;;5064727;28;20055;-70
2023/11/06 10:26:16;;;;;;;4.63;1.20;;;11.00;99.90;;;;;;5100702;28;20056;-70
2023/11/06 10:28:42;;;;;;;5.20;0.82;;;11.00;99.90;;;;;;5059758;28;20080;-70
2023/11/06 10:31:09;;;;;;;2.95;0.63;;;11.20;99.90;;;;;;5067608;28;20076;-70
2023/11/06 10:33:35;;;;;;;8.82;1.02;;;11.30;99.90;;;;;;5066711;28;20098;-70
2023/11/06 10:36:01;;;;;;;3.47;0.60;;;11.30;99.90;;;;;;5063390;28;20036;-70
2023/11/06 10:38:30;;;;;;;6.05;0.70;;;11.40;99.90;;;;;;5095014;28;20433;-71
2023/11/06 10:40:57;;;;;;;4.47;0.90;;;11.40;99.90;;;;;;5063331;28;20139;-70
2023/11/06 10:43:23;;;;;;;3.33;0.50;;;11.50;99.90;;;;;;5066222;28;20040;-70
2023/11/06 10:45:50;;;;;;;4.32;0.90;;;11.40;99.90;;;;;;5066894;28;20048;-70
2023/11/06 10:48:24;;;;;;;10.02;2.15;;;11.30;99.90;;;;;;5066404;28;20051;-70
2023/11/06 10:50:51;;;;;;;7.53;1.35;;;11.30;99.90;;;;;;5066000;28;20401;-70
2023/11/06 10:53:20;;;;;;;8.43;1.17;;;11.30;99.90;;;;;;5063761;28;20040;-70
2023/11/06 10:55:47;;;;;;;5.75;0.95;;;11.30;99.90;;;;;;5065139;28;20407;-70
2023/11/06 10:58:15;;;;;;;4.22;1.10;;;11.20;99.90;;;;;;5064977;28;20083;-70
2023/11/06 11:00:42;;;;;;;5.90;0.80;;;11.20;99.90;;;;;;5057021;28;20051;-70
2023/11/06 11:03:09;;;;;;;5.28;1.05;;;11.10;99.90;;;;;;5082611;28;20504;-70
2023/11/06 11:05:35;;;;;;;3.33;1.15;;;11.10;99.90;;;;;;5065957;28;20135;-70
2023/11/06 11:08:00;;;;;;;7.00;1.63;;;11.00;99.90;;;;;;5069195;28;20040;-70
2023/11/06 11:10:27;;;;;;;7.28;1.70;;;11.10;99.90;;;;;;5061872;28;20043;-70
2023/11/06 11:12:55;;;;;;;9.85;1.65;;;11.00;99.90;;;;;;5094042;28;20047;-70
2023/11/06 11:15:32;;;;;;;8.80;1.80;;;10.90;99.90;;;;;;5069099;28;20505;-70
2023/11/06 11:18:04;;;;;;;7.47;1.10;;;10.80;99.90;;;;;;5048790;28;20036;-70
2023/11/06 11:20:49;;;;;;;10.65;2.70;;;10.90;99.90;;;;;;5058657;28;20052;-70
2023/11/06 11:23:15;;;;;;;6.60;1.17;;;10.90;99.90;;;;;;5072418;28;20143;-70
2023/11/06 11:26:02;;;;;;;6.63;1.40;;;10.80;99.90;;;;;;5068640;28;20891;-70
2023/11/06 11:28:27;;;;;;;8.52;1.23;;;10.90;99.90;;;;;;5099392;28;20135;-70
2023/11/06 11:30:54;;;;;;;4.95;1.13;;;10.90;99.90;;;;;;5069329;28;20144;-70
2023/11/06 11:33:54;;;;;;;7.43;0.88;;;10.90;99.90;;;;;;5066412;28;20116;-70
2023/11/06 11:36:31;;;;;;;5.25;1.08;;;10.90;99.90;;;;;;5069093;28;20566;-70
2023/11/06 11:39:04;;;;;;;3.95;1.02;;;11.20;99.90;;;;;;5067667;28;20632;-70
2023/11/06 11:41:30;;;;;;;6.15;1.33;;;10.90;99.90;;;;;;5063847;28;20040;-70
2023/11/06 11:44:07;;;;;;;4.68;1.10;;;10.90;99.90;;;;;;5065768;28;20097;-70
2023/11/06 11:46:40;;;;;;;5.45;1.50;;;10.80;99.90;;;;;;5067332;28;20055;-69
2023/11/06 11:49:05;;;;;;;7.13;1.42;;;10.90;99.90;;;;;;5065853;28;20055;-70
2023/11/06 11:51:51;;;;;;;7.82;1.48;;;10.90;99.90;;;;;;5071495;28;20044;-70
2023/11/06 11:54:30;;;;;;;6.43;1.27;;;11.00;99.90;;;;;;5070970;28;20177;-70
2023/11/06 11:56:57;;;;;;;9.38;1.23;;;10.90;99.90;;;;;;5068213;28;20044;-70
2023/11/06 11:59:26;;;;;;;4.40;0.95;;;11.00;99.90;;;;;;5070881;28;20386;-70
2023/11/06 12:01:53;;;;;;;6.20;1.15;;;10.90;99.90;;;;;;5070775;28;20032;-70
2023/11/06 12:04:20;;;;;;;6.97;0.98;;;11.10;99.90;;;;;;5070441;28;20591;-71
2023/11/06 12:07:07;;;;;;;9.35;1.23;;;10.80;99.90;;;;;;5071339;28;20441;-71
2023/11/06 12:09:47;;;;;;;5.70;1.50;;;10.90;99.90;;;;;;5066274;28;20055;-71
2023/11/06 12:12:22;;;;;;;7.45;1.42;;;10.80;99.90;;;;;;5065804;28;20089;-71
2023/11/06 12:14:48;;;;;;;5.53;1.30;;;10.70;99.90;;;;;;5067256;28;20048;-71
2023/11/06 12:17:28;;;;;;;6.65;1.25;;;10.60;99.90;;;;;;5066187;28;20059;-71
2023/11/06 12:19:54;;;;;;;7.30;1.40;;;10.60;99.90;;;;;;5094009;28;20101;-73
2023/11/06 12:22:20;;;;;;;4.50;1.25;;;10.50;99.90;;;;;;5068891;28;20048;-72
2023/11/06 12:24:49;;;;;;;6.78;1.08;;;10.70;99.90;;;;;;5032169;28;20545;-72
2023/11/06 12:27:15;;;;;;;6.82;1.40;;;10.50;99.90;;;;;;5086258;28;20479;-72
2023/11/06 12:29:40;;;;;;;11.60;1.50;;;10.50;99.90;;;;;;5101434;27;20047;-72
2023/11/06 12:32:23;;;;;;;9.07;1.45;;;10.50;99.90;;;;;;5066549;28;20056;-71
2023/11/06 12:35:11;;;;;;;5.40;0.82;;;10.60;99.90;;;;;;5065802;28;20140;-72
2023/11/06 12:37:55;;;;;;;13.27;2.15;;;10.50;99.90;;;;;;5065519;28;20040;-72
2023/11/06 12:40:28;;;;;;;6.93;1.42;;;10.50;99.90;;;;;;5048989;28;20045;-72
2023/11/06 12:42:55;;;;;;;10.00;1.58;;;10.50;99.90;;;;;;5064798;28;20101;-72
2023/11/06 12:45:31;;;;;;;5.50;1.10;;;10.50;99.90;;;;;;5067125;28;20037;-72
2023/11/06 12:48:03;;;;;;;7.10;1.65;;;10.50;99.90;;;;;;5064852;28;20038;-72
2023/11/06 12:50:34;;;;;;;6.97;1.00;;;10.90;99.90;;;;;;5056310;28;20044;-71